Wednesday, April 25, 2018, 8:24 AM EDT
Back to Local

KMTN, Baltimore / Martin

Location: Middle River, MD, United States Lat: 39.333
Local Time: 8:24 AM EDT (12:24 GMT) Lon: -76.417
Time Zone: US/Eastern Elev: 22 ft

Show me the last for .
Show Decoded

2018-04-25 07:45 METAR KMTN 251145Z 00000KT 2SM BR OVC003 14/14 A2982 =
2018-04-25 06:45 METAR KMTN 251045Z 00000KT 2SM BR OVC005 14/14 A2983 =
2018-04-25 05:45 METAR KMTN 250945Z 06003KT 4SM RA OVC005 14/14 A2984 =
2018-04-25 05:33 METAR KMTN 250933Z AUTO 00000KT 5SM RA OVC005 13/13 A2984 RMK AO2 P0002 LTG DSNT
                 SE =
2018-04-25 05:18 METAR KMTN 250918Z AUTO 05003KT 7SM +RA OVC005 13/13 A2985 RMK AO2 P0001 =
2018-04-25 05:00 METAR KMTN 250900Z AUTO 00000KT 10SM OVC005 13/13 A2985 RMK AO2 =
2018-04-25 04:39 METAR KMTN 250839Z AUTO 05003KT 5SM +DZ OVC005 13/13 A2985 RMK AO2 P0001 LTG
                 DSNT SE =
2018-04-25 04:18 METAR KMTN 250818Z AUTO 04003KT 5SM RA OVC005 13/13 A2986 RMK AO2 LTG DSNT SE =
2018-04-25 04:00 METAR KMTN 250800Z AUTO 05004KT 5SM DZ OVC007 13/13 A2987 RMK AO2 =
2018-04-25 03:39 METAR KMTN 250739Z AUTO 04004KT 7SM DZ OVC009 13/13 A2988 RMK AO2 P0001 =
2018-04-25 03:18 METAR KMTN 250718Z AUTO 04004KT 10SM BKN009 OVC013 13/13 A2988 RMK AO2 =
2018-04-25 03:00 METAR KMTN 250700Z AUTO 05003KT 5SM +DZ SCT006 BKN009 OVC013 13/13 A2989 RMK AO2
                 =
2018-04-25 02:39 METAR KMTN 250639Z AUTO 04003KT 3SM +RA BKN008 OVC012 13/13 A2991 RMK AO2 P0007
                 LTG DSNT SE =
2018-04-25 02:18 METAR KMTN 250618Z AUTO 05004KT 5SM +RA BKN007 OVC010 13/13 A2992 RMK AO2 P0002
                 =
2018-04-25 02:00 METAR KMTN 250600Z AUTO 05004KT 5SM +RA BKN007 OVC013 13/13 A2993 RMK AO2 =
2018-04-25 01:39 METAR KMTN 250539Z AUTO 06004KT 3SM RA BKN007 OVC012 13/13 A2994 RMK AO2 P0016 =
2018-04-25 01:18 METAR KMTN 250518Z AUTO 07005KT 5SM RA OVC005 13/13 A2995 RMK AO2 P0004 LTG DSNT
                 S =
2018-04-25 01:00 METAR KMTN 250500Z AUTO 06008G14KT 4SM RA BKN005 BKN012 OVC018 13/13 A2995 RMK
                 AO2 =
2018-04-25 00:39 METAR KMTN 250439Z AUTO 04011G15KT 2 1/2SM +RA OVC005 12/12 A2996 RMK AO2 P0016
                 =
2018-04-25 00:18 METAR KMTN 250418Z AUTO 04007KT 5SM RA OVC005 12/12 A2997 RMK AO2 P0001 =
2018-04-25 00:00 METAR KMTN 250400Z AUTO 04007KT 5SM +RA OVC005 12/12 A2999 RMK AO2 =
2018-04-24 23:39 METAR KMTN 250339Z AUTO 05008KT 4SM RA OVC005 12/12 A3001 RMK AO2 P0005 =
2018-04-24 23:18 METAR KMTN 250318Z AUTO 05007G15KT 4SM -RA OVC005 12/12 A3002 RMK AO2 P0002 =
2018-04-24 23:00 METAR KMTN 250300Z AUTO 04007KT 5SM +RA OVC005 12/12 A3004 RMK AO2 =
2018-04-24 22:39 METAR KMTN 250239Z AUTO 04008KT 009V079 5SM +RA BKN005 BKN011 OVC027 12/12 A3005
                 RMK AO2 P0008 =
2018-04-24 22:18 METAR KMTN 250218Z AUTO 04006KT 4SM RA BKN005 BKN009 OVC015 12/12 A3007 RMK AO2
                 P0005 =
2018-04-24 21:45 METAR KMTN 250145Z 05007KT 020V080 4SM -RA SCT007 OVC035 13/13 A3010 =
2018-04-24 20:45 METAR KMTN 250045Z 07009KT 4SM -RA BKN010 OVC022 13/12 A3011 =
2018-04-24 19:45 METAR KMTN 242345Z 06004KT 5SM -RA BKN032 OVC050 13/12 A3011 =
2018-04-24 18:45 METAR KMTN 242245Z 07009G14KTKT 5SM -RA OVC065 14/12 A3012 =
2018-04-24 17:45 METAR KMTN 242145Z COR 07009KT 10SM -RA OVC090 16/10 A3013 =
2018-04-24 16:45 METAR KMTN 242045Z 08008G16KT 10SM BKN042 OVC110 17/11 A3015 =
2018-04-24 15:45 METAR KMTN 241945Z 09009KT 10SM OVC044 17/10 A3018 =
2018-04-24 14:45 METAR KMTN 241845Z 10010G17KT 10SM BKN044 OVC055 18/11 A3024 =
2018-04-24 13:45 METAR KMTN 241745Z 09011G16KT 10SM BKN040 OVC045 18/11 A3024 =
2018-04-24 12:45 METAR KMTN 241645Z 08009KT 10SM BKN040 OVC100 17/10 A3025 =
2018-04-24 11:45 METAR KMTN 241545Z 11010KT 10SM SCT040 OVC100 18/10 A3028 =
2018-04-24 10:45 METAR KMTN 241445Z 09007KT 10SM SCT040 OVC110 17/10 A3030 =
2018-04-24 09:45 METAR KMTN 241345Z 08003KT 10SM FEW040 SCT050 OVC100 15/09 A3031 =
2018-04-24 08:45 METAR KMTN 241245Z COR 07004KT 10SM BKN040 OVC050 13/08 A3033 =

Support USWX by starting your Amazon purchase here.